sensor_id;sensor_type;location;lat;lon;timestamp;P1;durP1;ratioP1;P2;durP2;ratioP2
65459;SDS011;52058;49.822;6.754;2023-03-04T00:00:03;70.22;;;19.98;;
65459;SDS011;52058;49.822;6.754;2023-03-04T00:02:30;57.53;;;17.55;;
65459;SDS011;52058;49.822;6.754;2023-03-04T00:04:57;67.00;;;16.80;;
65459;SDS011;52058;49.822;6.754;2023-03-04T00:07:23;57.90;;;18.52;;
65459;SDS011;52058;49.822;6.754;2023-03-04T00:09:50;70.15;;;20.70;;
65459;SDS011;52058;49.822;6.754;2023-03-04T00:12:18;60.00;;;18.25;;
65459;SDS011;52058;49.822;6.754;2023-03-04T00:14:44;65.25;;;18.65;;
65459;SDS011;52058;49.822;6.754;2023-03-04T00:17:11;62.15;;;19.33;;
65459;SDS011;52058;49.822;6.754;2023-03-04T00:19:38;60.70;;;19.08;;
65459;SDS011;52058;49.822;6.754;2023-03-04T00:22:04;55.03;;;16.65;;
65459;SDS011;52058;49.822;6.754;2023-03-04T00:24:31;71.80;;;18.42;;
65459;SDS011;52058;49.822;6.754;2023-03-04T00:26:59;59.83;;;18.77;;
65459;SDS011;52058;49.822;6.754;2023-03-04T00:29:27;63.08;;;18.90;;
65459;SDS011;52058;49.822;6.754;2023-03-04T00:31:53;61.22;;;18.60;;
65459;SDS011;52058;49.822;6.754;2023-03-04T00:34:20;62.63;;;18.15;;
65459;SDS011;52058;49.822;6.754;2023-03-04T00:36:46;58.58;;;16.75;;
65459;SDS011;52058;49.822;6.754;2023-03-04T00:39:13;61.05;;;18.75;;
65459;SDS011;52058;49.822;6.754;2023-03-04T00:41:40;59.85;;;18.33;;
65459;SDS011;52058;49.822;6.754;2023-03-04T00:44:07;58.28;;;16.38;;
65459;SDS011;52058;49.822;6.754;2023-03-04T00:46:35;59.60;;;17.00;;
65459;SDS011;52058;49.822;6.754;2023-03-04T00:49:01;62.20;;;17.15;;
65459;SDS011;52058;49.822;6.754;2023-03-04T00:51:28;64.18;;;17.30;;
65459;SDS011;52058;49.822;6.754;2023-03-04T00:53:55;63.67;;;16.50;;
65459;SDS011;52058;49.822;6.754;2023-03-04T00:56:21;65.00;;;17.58;;
65459;SDS011;52058;49.822;6.754;2023-03-04T00:58:48;61.10;;;17.00;;
65459;SDS011;52058;49.822;6.754;2023-03-04T01:01:14;66.78;;;17.80;;
65459;SDS011;52058;49.822;6.754;2023-03-04T01:03:43;65.60;;;16.65;;
65459;SDS011;52058;49.822;6.754;2023-03-04T01:06:09;70.45;;;18.20;;
65459;SDS011;52058;49.822;6.754;2023-03-04T01:08:36;62.22;;;17.23;;
65459;SDS011;52058;49.822;6.754;2023-03-04T01:11:03;67.18;;;17.85;;
65459;SDS011;52058;49.822;6.754;2023-03-04T01:13:30;66.40;;;17.85;;
65459;SDS011;52058;49.822;6.754;2023-03-04T01:15:57;63.42;;;18.45;;
65459;SDS011;52058;49.822;6.754;2023-03-04T01:18:23;63.75;;;18.25;;
65459;SDS011;52058;49.822;6.754;2023-03-04T01:20:51;68.55;;;18.75;;
65459;SDS011;52058;49.822;6.754;2023-03-04T01:23:18;60.05;;;17.20;;
65459;SDS011;52058;49.822;6.754;2023-03-04T01:25:45;55.83;;;16.85;;
65459;SDS011;52058;49.822;6.754;2023-03-04T01:28:11;56.70;;;16.38;;
65459;SDS011;52058;49.822;6.754;2023-03-04T01:30:38;57.65;;;17.48;;
65459;SDS011;52058;49.822;6.754;2023-03-04T01:33:05;63.05;;;17.40;;
65459;SDS011;52058;49.822;6.754;2023-03-04T01:35:31;68.43;;;19.25;;
65459;SDS011;52058;49.822;6.754;2023-03-04T01:38:00;67.32;;;19.27;;
65459;SDS011;52058;49.822;6.754;2023-03-04T01:40:26;61.15;;;18.85;;
65459;SDS011;52058;49.822;6.754;2023-03-04T01:42:53;61.95;;;17.45;;
65459;SDS011;52058;49.822;6.754;2023-03-04T01:45:20;64.07;;;16.38;;
65459;SDS011;52058;49.822;6.754;2023-03-04T01:47:46;52.53;;;17.00;;
65459;SDS011;52058;49.822;6.754;2023-03-04T01:50:16;65.32;;;18.67;;
65459;SDS011;52058;49.822;6.754;2023-03-04T01:52:45;58.58;;;17.67;;
65459;SDS011;52058;49.822;6.754;2023-03-04T01:55:15;60.97;;;17.23;;
65459;SDS011;52058;49.822;6.754;2023-03-04T01:57:44;62.22;;;16.38;;
65459;SDS011;52058;49.822;6.754;2023-03-04T02:00:18;65.85;;;17.23;;
65459;SDS011;52058;49.822;6.754;2023-03-04T02:02:47;63.25;;;19.60;;
65459;SDS011;52058;49.822;6.754;2023-03-04T02:05:15;65.15;;;18.75;;
65459;SDS011;52058;49.822;6.754;2023-03-04T02:07:42;69.55;;;19.08;;
65459;SDS011;52058;49.822;6.754;2023-03-04T02:10:09;61.67;;;18.70;;
65459;SDS011;52058;49.822;6.754;2023-03-04T02:12:38;67.20;;;18.88;;
65459;SDS011;52058;49.822;6.754;2023-03-04T02:15:06;58.38;;;16.35;;
65459;SDS011;52058;49.822;6.754;2023-03-04T02:17:33;61.95;;;18.30;;
65459;SDS011;52058;49.822;6.754;2023-03-04T02:20:01;62.78;;;17.52;;
65459;SDS011;52058;49.822;6.754;2023-03-04T02:22:34;64.15;;;19.08;;
65459;SDS011;52058;49.822;6.754;2023-03-04T02:25:05;60.03;;;17.38;;
65459;SDS011;52058;49.822;6.754;2023-03-04T02:27:37;54.20;;;16.15;;
65459;SDS011;52058;49.822;6.754;2023-03-04T02:30:04;61.88;;;18.75;;
65459;SDS011;52058;49.822;6.754;2023-03-04T02:32:32;64.50;;;18.83;;
65459;SDS011;52058;49.822;6.754;2023-03-04T02:34:58;66.70;;;18.50;;
65459;SDS011;52058;49.822;6.754;2023-03-04T02:37:25;69.03;;;19.10;;
65459;SDS011;52058;49.822;6.754;2023-03-04T02:39:52;68.75;;;18.90;;
65459;SDS011;52058;49.822;6.754;2023-03-04T02:42:18;55.80;;;16.75;;
65459;SDS011;52058;49.822;6.754;2023-03-04T02:44:46;60.05;;;19.55;;
65459;SDS011;52058;49.822;6.754;2023-03-04T02:47:15;68.15;;;18.80;;
65459;SDS011;52058;49.822;6.754;2023-03-04T02:49:43;63.42;;;19.65;;
65459;SDS011;52058;49.822;6.754;2023-03-04T02:52:12;69.53;;;19.60;;
65459;SDS011;52058;49.822;6.754;2023-03-04T02:54:40;62.75;;;17.08;;
65459;SDS011;52058;49.822;6.754;2023-03-04T02:57:08;71.72;;;19.95;;
65459;SDS011;52058;49.822;6.754;2023-03-04T02:59:36;60.72;;;18.20;;
65459;SDS011;52058;49.822;6.754;2023-03-04T03:02:04;61.47;;;19.42;;
65459;SDS011;52058;49.822;6.754;2023-03-04T03:04:31;65.38;;;21.35;;
65459;SDS011;52058;49.822;6.754;2023-03-04T03:06:59;65.55;;;18.85;;
65459;SDS011;52058;49.822;6.754;2023-03-04T03:09:26;71.55;;;20.83;;
65459;SDS011;52058;49.822;6.754;2023-03-04T03:11:52;64.60;;;19.15;;
65459;SDS011;52058;49.822;6.754;2023-03-04T03:14:19;61.80;;;19.38;;
65459;SDS011;52058;49.822;6.754;2023-03-04T03:16:46;66.63;;;19.38;;
65459;SDS011;52058;49.822;6.754;2023-03-04T03:19:14;66.53;;;19.88;;
65459;SDS011;52058;49.822;6.754;2023-03-04T03:21:40;58.10;;;18.45;;
65459;SDS011;52058;49.822;6.754;2023-03-04T03:24:07;66.80;;;20.23;;
65459;SDS011;52058;49.822;6.754;2023-03-04T03:26:33;65.65;;;18.95;;
65459;SDS011;52058;49.822;6.754;2023-03-04T03:29:00;61.72;;;18.30;;
65459;SDS011;52058;49.822;6.754;2023-03-04T03:31:27;65.10;;;18.98;;
65459;SDS011;52058;49.822;6.754;2023-03-04T03:33:53;58.97;;;18.23;;
65459;SDS011;52058;49.822;6.754;2023-03-04T03:36:21;54.92;;;18.58;;
65459;SDS011;52058;49.822;6.754;2023-03-04T03:38:48;65.70;;;20.48;;
65459;SDS011;52058;49.822;6.754;2023-03-04T03:41:14;58.08;;;18.70;;
65459;SDS011;52058;49.822;6.754;2023-03-04T03:43:41;59.60;;;17.73;;
65459;SDS011;52058;49.822;6.754;2023-03-04T03:46:07;60.10;;;18.80;;
65459;SDS011;52058;49.822;6.754;2023-03-04T03:48:34;62.95;;;19.33;;
65459;SDS011;52058;49.822;6.754;2023-03-04T03:51:00;58.60;;;19.13;;
65459;SDS011;52058;49.822;6.754;2023-03-04T03:53:28;58.88;;;18.20;;
65459;SDS011;52058;49.822;6.754;2023-03-04T03:55:55;62.85;;;19.75;;
65459;SDS011;52058;49.822;6.754;2023-03-04T03:58:23;61.75;;;19.48;;
65459;SDS011;52058;49.822;6.754;2023-03-04T04:00:50;61.30;;;19.05;;
65459;SDS011;52058;49.822;6.754;2023-03-04T04:03:17;58.25;;;19.40;;
65459;SDS011;52058;49.822;6.754;2023-03-04T04:05:44;60.00;;;20.23;;
65459;SDS011;52058;49.822;6.754;2023-03-04T04:08:11;63.78;;;19.63;;
65459;SDS011;52058;49.822;6.754;2023-03-04T04:10:40;59.78;;;19.08;;
65459;SDS011;52058;49.822;6.754;2023-03-04T04:13:07;65.75;;;19.80;;
65459;SDS011;52058;49.822;6.754;2023-03-04T04:15:33;68.47;;;19.58;;
65459;SDS011;52058;49.822;6.754;2023-03-04T04:18:00;59.22;;;18.10;;
65459;SDS011;52058;49.822;6.754;2023-03-04T04:20:27;60.10;;;19.75;;
65459;SDS011;52058;49.822;6.754;2023-03-04T04:22:53;67.80;;;20.55;;
65459;SDS011;52058;49.822;6.754;2023-03-04T04:25:20;59.22;;;19.27;;
65459;SDS011;52058;49.822;6.754;2023-03-04T04:27:48;65.22;;;20.63;;
65459;SDS011;52058;49.822;6.754;2023-03-04T04:30:14;62.30;;;19.13;;
65459;SDS011;52058;49.822;6.754;2023-03-04T04:32:41;71.68;;;21.02;;
65459;SDS011;52058;49.822;6.754;2023-03-04T04:35:07;59.90;;;18.65;;
65459;SDS011;52058;49.822;6.754;2023-03-04T04:37:34;60.22;;;20.38;;
65459;SDS011;52058;49.822;6.754;2023-03-04T04:40:01;62.70;;;19.17;;
65459;SDS011;52058;49.822;6.754;2023-03-04T04:42:28;61.88;;;19.35;;
65459;SDS011;52058;49.822;6.754;2023-03-04T04:44:57;67.30;;;21.52;;
65459;SDS011;52058;49.822;6.754;2023-03-04T04:47:23;64.80;;;20.15;;
65459;SDS011;52058;49.822;6.754;2023-03-04T04:49:50;68.90;;;19.55;;
65459;SDS011;52058;49.822;6.754;2023-03-04T04:52:16;70.25;;;22.63;;
65459;SDS011;52058;49.822;6.754;2023-03-04T04:54:43;72.35;;;21.50;;
65459;SDS011;52058;49.822;6.754;2023-03-04T04:57:09;63.00;;;20.30;;
65459;SDS011;52058;49.822;6.754;2023-03-04T04:59:36;74.05;;;21.40;;
65459;SDS011;52058;49.822;6.754;2023-03-04T05:02:04;54.00;;;19.73;;
65459;SDS011;52058;49.822;6.754;2023-03-04T05:04:30;60.30;;;21.08;;
65459;SDS011;52058;49.822;6.754;2023-03-04T05:06:57;67.53;;;20.80;;
65459;SDS011;52058;49.822;6.754;2023-03-04T05:09:24;66.43;;;21.88;;
65459;SDS011;52058;49.822;6.754;2023-03-04T05:11:50;66.70;;;20.38;;
65459;SDS011;52058;49.822;6.754;2023-03-04T05:14:17;67.38;;;21.60;;
65459;SDS011;52058;49.822;6.754;2023-03-04T05:16:43;68.88;;;22.23;;
65459;SDS011;52058;49.822;6.754;2023-03-04T05:19:11;62.88;;;20.55;;
65459;SDS011;52058;49.822;6.754;2023-03-04T05:21:38;70.00;;;21.77;;
65459;SDS011;52058;49.822;6.754;2023-03-04T05:24:04;65.53;;;20.83;;
65459;SDS011;52058;49.822;6.754;2023-03-04T05:26:31;62.35;;;19.65;;
65459;SDS011;52058;49.822;6.754;2023-03-04T05:28:59;66.97;;;19.17;;
65459;SDS011;52058;49.822;6.754;2023-03-04T05:31:25;68.20;;;20.40;;
65459;SDS011;52058;49.822;6.754;2023-03-04T05:33:52;60.67;;;19.77;;
65459;SDS011;52058;49.822;6.754;2023-03-04T05:36:20;63.85;;;19.95;;
65459;SDS011;52058;49.822;6.754;2023-03-04T05:38:46;72.15;;;22.45;;
65459;SDS011;52058;49.822;6.754;2023-03-04T05:41:13;68.10;;;22.15;;
65459;SDS011;52058;49.822;6.754;2023-03-04T05:43:43;68.68;;;22.25;;
65459;SDS011;52058;49.822;6.754;2023-03-04T05:46:10;65.30;;;20.40;;
65459;SDS011;52058;49.822;6.754;2023-03-04T05:48:39;62.25;;;21.08;;
65459;SDS011;52058;49.822;6.754;2023-03-04T05:51:05;69.45;;;21.85;;
65459;SDS011;52058;49.822;6.754;2023-03-04T05:53:34;61.17;;;20.50;;
65459;SDS011;52058;49.822;6.754;2023-03-04T05:56:05;72.07;;;21.42;;
65459;SDS011;52058;49.822;6.754;2023-03-04T05:58:32;67.28;;;22.35;;
65459;SDS011;52058;49.822;6.754;2023-03-04T06:00:59;67.70;;;20.27;;
65459;SDS011;52058;49.822;6.754;2023-03-04T06:03:26;64.85;;;21.90;;
65459;SDS011;52058;49.822;6.754;2023-03-04T06:05:52;71.20;;;21.30;;
65459;SDS011;52058;49.822;6.754;2023-03-04T06:08:19;64.18;;;19.67;;
65459;SDS011;52058;49.822;6.754;2023-03-04T06:10:48;63.63;;;19.30;;
65459;SDS011;52058;49.822;6.754;2023-03-04T06:13:17;63.22;;;19.80;;
65459;SDS011;52058;49.822;6.754;2023-03-04T06:15:44;65.82;;;21.45;;
65459;SDS011;52058;49.822;6.754;2023-03-04T06:18:11;63.55;;;21.10;;
65459;SDS011;52058;49.822;6.754;2023-03-04T06:20:37;68.70;;;20.92;;
65459;SDS011;52058;49.822;6.754;2023-03-04T06:23:05;71.82;;;22.48;;
65459;SDS011;52058;49.822;6.754;2023-03-04T06:25:31;71.68;;;23.52;;
65459;SDS011;52058;49.822;6.754;2023-03-04T06:27:59;74.85;;;22.92;;
65459;SDS011;52058;49.822;6.754;2023-03-04T06:30:26;72.45;;;21.13;;
65459;SDS011;52058;49.822;6.754;2023-03-04T06:32:53;74.93;;;25.05;;
65459;SDS011;52058;49.822;6.754;2023-03-04T06:35:20;67.63;;;22.30;;
65459;SDS011;52058;49.822;6.754;2023-03-04T06:37:46;72.22;;;23.83;;
65459;SDS011;52058;49.822;6.754;2023-03-04T06:40:13;72.60;;;22.27;;
65459;SDS011;52058;49.822;6.754;2023-03-04T06:42:40;67.55;;;21.55;;
65459;SDS011;52058;49.822;6.754;2023-03-04T06:45:08;63.95;;;20.77;;
65459;SDS011;52058;49.822;6.754;2023-03-04T06:47:36;72.55;;;23.80;;
65459;SDS011;52058;49.822;6.754;2023-03-04T06:50:03;60.47;;;21.23;;
65459;SDS011;52058;49.822;6.754;2023-03-04T06:52:30;63.70;;;20.67;;
65459;SDS011;52058;49.822;6.754;2023-03-04T06:54:57;60.33;;;22.52;;
65459;SDS011;52058;49.822;6.754;2023-03-04T06:57:23;64.47;;;21.38;;
65459;SDS011;52058;49.822;6.754;2023-03-04T06:59:50;62.67;;;22.90;;
65459;SDS011;52058;49.822;6.754;2023-03-04T07:02:18;70.30;;;21.15;;
65459;SDS011;52058;49.822;6.754;2023-03-04T07:04:44;64.00;;;20.23;;
65459;SDS011;52058;49.822;6.754;2023-03-04T07:07:11;65.82;;;21.92;;
65459;SDS011;52058;49.822;6.754;2023-03-04T07:09:37;59.50;;;19.40;;
65459;SDS011;52058;49.822;6.754;2023-03-04T07:12:04;64.13;;;20.10;;
65459;SDS011;52058;49.822;6.754;2023-03-04T07:14:31;64.95;;;21.65;;
65459;SDS011;52058;49.822;6.754;2023-03-04T07:16:58;67.85;;;21.60;;
65459;SDS011;52058;49.822;6.754;2023-03-04T07:19:26;69.68;;;21.10;;
65459;SDS011;52058;49.822;6.754;2023-03-04T07:21:52;69.80;;;21.60;;
65459;SDS011;52058;49.822;6.754;2023-03-04T07:24:19;62.65;;;21.13;;
65459;SDS011;52058;49.822;6.754;2023-03-04T07:26:45;65.47;;;22.10;;
65459;SDS011;52058;49.822;6.754;2023-03-04T07:29:12;66.57;;;21.63;;
65459;SDS011;52058;49.822;6.754;2023-03-04T07:31:39;61.85;;;21.38;;
65459;SDS011;52058;49.822;6.754;2023-03-04T07:34:07;70.25;;;24.77;;
65459;SDS011;52058;49.822;6.754;2023-03-04T07:36:38;69.35;;;23.20;;
65459;SDS011;52058;49.822;6.754;2023-03-04T07:39:05;65.07;;;22.83;;
65459;SDS011;52058;49.822;6.754;2023-03-04T07:41:35;70.22;;;23.40;;
65459;SDS011;52058;49.822;6.754;2023-03-04T07:44:02;64.30;;;20.77;;
65459;SDS011;52058;49.822;6.754;2023-03-04T07:46:30;71.10;;;22.67;;
65459;SDS011;52058;49.822;6.754;2023-03-04T07:48:57;64.43;;;21.70;;
65459;SDS011;52058;49.822;6.754;2023-03-04T07:51:24;69.35;;;22.75;;
65459;SDS011;52058;49.822;6.754;2023-03-04T07:53:54;77.70;;;23.90;;
65459;SDS011;52058;49.822;6.754;2023-03-04T07:56:23;78.05;;;26.35;;
65459;SDS011;52058;49.822;6.754;2023-03-04T07:58:51;62.08;;;21.98;;
65459;SDS011;52058;49.822;6.754;2023-03-04T08:01:19;64.15;;;22.05;;
65459;SDS011;52058;49.822;6.754;2023-03-04T08:03:47;66.00;;;21.35;;
65459;SDS011;52058;49.822;6.754;2023-03-04T08:06:14;62.63;;;22.80;;
65459;SDS011;52058;49.822;6.754;2023-03-04T08:08:43;67.38;;;22.67;;
65459;SDS011;52058;49.822;6.754;2023-03-04T08:11:12;61.28;;;21.10;;
65459;SDS011;52058;49.822;6.754;2023-03-04T08:13:40;66.97;;;21.92;;
65459;SDS011;52058;49.822;6.754;2023-03-04T08:16:07;69.60;;;21.83;;
65459;SDS011;52058;49.822;6.754;2023-03-04T08:18:33;63.38;;;21.92;;
65459;SDS011;52058;49.822;6.754;2023-03-04T08:21:00;63.28;;;20.67;;
65459;SDS011;52058;49.822;6.754;2023-03-04T08:23:26;63.35;;;20.63;;
65459;SDS011;52058;49.822;6.754;2023-03-04T08:25:53;63.17;;;22.20;;
65459;SDS011;52058;49.822;6.754;2023-03-04T08:28:21;62.13;;;22.23;;
65459;SDS011;52058;49.822;6.754;2023-03-04T08:30:51;63.88;;;21.67;;
65459;SDS011;52058;49.822;6.754;2023-03-04T08:33:18;61.53;;;21.63;;
65459;SDS011;52058;49.822;6.754;2023-03-04T08:35:45;63.20;;;21.40;;
65459;SDS011;52058;49.822;6.754;2023-03-04T08:38:11;59.10;;;20.85;;
65459;SDS011;52058;49.822;6.754;2023-03-04T08:40:38;63.55;;;21.05;;
65459;SDS011;52058;49.822;6.754;2023-03-04T08:43:04;62.63;;;21.48;;
65459;SDS011;52058;49.822;6.754;2023-03-04T08:45:32;55.67;;;19.33;;
65459;SDS011;52058;49.822;6.754;2023-03-04T08:47:59;63.03;;;20.77;;
65459;SDS011;52058;49.822;6.754;2023-03-04T08:50:25;60.80;;;20.48;;
65459;SDS011;52058;49.822;6.754;2023-03-04T08:52:53;62.08;;;21.10;;
65459;SDS011;52058;49.822;6.754;2023-03-04T08:55:19;65.45;;;21.88;;
65459;SDS011;52058;49.822;6.754;2023-03-04T08:57:46;59.25;;;20.17;;
65459;SDS011;52058;49.822;6.754;2023-03-04T09:00:13;65.53;;;21.23;;
65459;SDS011;52058;49.822;6.754;2023-03-04T09:02:41;59.78;;;21.23;;
65459;SDS011;52058;49.822;6.754;2023-03-04T09:05:08;60.55;;;20.20;;
65459;SDS011;52058;49.822;6.754;2023-03-04T09:07:35;64.18;;;21.23;;
65459;SDS011;52058;49.822;6.754;2023-03-04T09:10:01;59.13;;;21.95;;
65459;SDS011;52058;49.822;6.754;2023-03-04T09:12:28;56.22;;;21.10;;
65459;SDS011;52058;49.822;6.754;2023-03-04T09:14:55;62.55;;;23.77;;
65459;SDS011;52058;49.822;6.754;2023-03-04T09:17:21;64.95;;;22.10;;
65459;SDS011;52058;49.822;6.754;2023-03-04T09:19:49;57.10;;;21.15;;
65459;SDS011;52058;49.822;6.754;2023-03-04T09:22:16;60.38;;;21.80;;
65459;SDS011;52058;49.822;6.754;2023-03-04T09:24:42;62.17;;;23.02;;
65459;SDS011;52058;49.822;6.754;2023-03-04T09:27:09;53.00;;;19.95;;
65459;SDS011;52058;49.822;6.754;2023-03-04T09:29:35;53.85;;;20.00;;
65459;SDS011;52058;49.822;6.754;2023-03-04T09:32:02;58.85;;;21.65;;
65459;SDS011;52058;49.822;6.754;2023-03-04T09:34:29;57.65;;;21.27;;
65459;SDS011;52058;49.822;6.754;2023-03-04T09:36:57;56.42;;;21.05;;
65459;SDS011;52058;49.822;6.754;2023-03-04T09:39:23;57.78;;;21.35;;
65459;SDS011;52058;49.822;6.754;2023-03-04T09:41:50;57.35;;;20.88;;
65459;SDS011;52058;49.822;6.754;2023-03-04T09:44:21;54.17;;;21.65;;
65459;SDS011;52058;49.822;6.754;2023-03-04T09:46:49;58.08;;;21.55;;
65459;SDS011;52058;49.822;6.754;2023-03-04T09:49:17;56.05;;;21.92;;
65459;SDS011;52058;49.822;6.754;2023-03-04T09:51:47;58.60;;;22.48;;
65459;SDS011;52058;49.822;6.754;2023-03-04T09:54:26;57.08;;;20.95;;
65459;SDS011;52058;49.822;6.754;2023-03-04T09:57:09;63.28;;;21.85;;
65459;SDS011;52058;49.822;6.754;2023-03-04T09:59:47;51.80;;;20.98;;
65459;SDS011;52058;49.822;6.754;2023-03-04T10:02:23;57.72;;;20.33;;
65459;SDS011;52058;49.822;6.754;2023-03-04T10:04:56;59.95;;;21.02;;
65459;SDS011;52058;49.822;6.754;2023-03-04T10:07:26;52.58;;;19.75;;
65459;SDS011;52058;49.822;6.754;2023-03-04T10:09:58;57.83;;;21.05;;
65459;SDS011;52058;49.822;6.754;2023-03-04T10:12:28;52.35;;;20.50;;
65459;SDS011;52058;49.822;6.754;2023-03-04T10:14:59;53.22;;;20.77;;
65459;SDS011;52058;49.822;6.754;2023-03-04T10:17:29;53.22;;;20.70;;
65459;SDS011;52058;49.822;6.754;2023-03-04T10:20:02;51.00;;;19.45;;
65459;SDS011;52058;49.822;6.754;2023-03-04T10:22:34;58.22;;;21.85;;
65459;SDS011;52058;49.822;6.754;2023-03-04T10:25:14;56.25;;;22.20;;
65459;SDS011;52058;49.822;6.754;2023-03-04T10:27:48;59.42;;;23.20;;
65459;SDS011;52058;49.822;6.754;2023-03-04T10:30:18;60.53;;;22.75;;
65459;SDS011;52058;49.822;6.754;2023-03-04T10:32:51;57.05;;;21.35;;
65459;SDS011;52058;49.822;6.754;2023-03-04T10:35:19;57.90;;;21.67;;
65459;SDS011;52058;49.822;6.754;2023-03-04T10:37:51;53.47;;;20.38;;
65459;SDS011;52058;49.822;6.754;2023-03-04T10:40:21;58.35;;;22.45;;
65459;SDS011;52058;49.822;6.754;2023-03-04T10:42:49;54.63;;;20.20;;
65459;SDS011;52058;49.822;6.754;2023-03-04T10:45:21;54.85;;;20.48;;
65459;SDS011;52058;49.822;6.754;2023-03-04T10:47:52;57.63;;;21.60;;
65459;SDS011;52058;49.822;6.754;2023-03-04T10:50:23;54.00;;;20.90;;
65459;SDS011;52058;49.822;6.754;2023-03-04T10:52:51;58.67;;;19.75;;
65459;SDS011;52058;49.822;6.754;2023-03-04T10:55:22;51.72;;;19.85;;
65459;SDS011;52058;49.822;6.754;2023-03-04T10:57:52;50.58;;;19.88;;
65459;SDS011;52058;49.822;6.754;2023-03-04T11:00:25;48.28;;;19.52;;
65459;SDS011;52058;49.822;6.754;2023-03-04T11:03:11;55.28;;;19.98;;
65459;SDS011;52058;49.822;6.754;2023-03-04T11:08:15;45.75;;;17.98;;
65459;SDS011;52058;49.822;6.754;2023-03-04T11:10:44;47.58;;;18.88;;
65459;SDS011;52058;49.822;6.754;2023-03-04T11:13:12;52.15;;;18.65;;
65459;SDS011;52058;49.822;6.754;2023-03-04T11:15:50;44.90;;;18.02;;
65459;SDS011;52058;49.822;6.754;2023-03-04T11:18:18;47.17;;;18.20;;
65459;SDS011;52058;49.822;6.754;2023-03-04T11:20:47;44.47;;;18.05;;
65459;SDS011;52058;49.822;6.754;2023-03-04T11:23:17;44.22;;;16.77;;
65459;SDS011;52058;49.822;6.754;2023-03-04T11:25:54;46.08;;;18.20;;
65459;SDS011;52058;49.822;6.754;2023-03-04T11:28:28;39.47;;;17.00;;
65459;SDS011;52058;49.822;6.754;2023-03-04T11:31:05;43.00;;;15.30;;
65459;SDS011;52058;49.822;6.754;2023-03-04T11:36:11;32.42;;;14.38;;
65459;SDS011;52058;49.822;6.754;2023-03-04T11:38:48;34.42;;;12.70;;
65459;SDS011;52058;49.822;6.754;2023-03-04T11:41:19;31.02;;;12.63;;
65459;SDS011;52058;49.822;6.754;2023-03-04T11:43:50;23.73;;;9.85;;
65459;SDS011;52058;49.822;6.754;2023-03-04T11:49:13;22.35;;;9.00;;
65459;SDS011;52058;49.822;6.754;2023-03-04T11:51:51;23.88;;;8.95;;
65459;SDS011;52058;49.822;6.754;2023-03-04T11:54:25;20.83;;;8.57;;
65459;SDS011;52058;49.822;6.754;2023-03-04T11:56:59;19.48;;;7.68;;
65459;SDS011;52058;49.822;6.754;2023-03-04T12:02:26;17.33;;;6.65;;
65459;SDS011;52058;49.822;6.754;2023-03-04T12:08:02;15.57;;;5.65;;
65459;SDS011;52058;49.822;6.754;2023-03-04T12:10:48;13.65;;;5.97;;
65459;SDS011;52058;49.822;6.754;2023-03-04T12:13:31;16.20;;;5.60;;
65459;SDS011;52058;49.822;6.754;2023-03-04T12:16:15;12.20;;;5.40;;
65459;SDS011;52058;49.822;6.754;2023-03-04T12:18:53;13.90;;;5.38;;
65459;SDS011;52058;49.822;6.754;2023-03-04T12:21:34;12.35;;;5.20;;
65459;SDS011;52058;49.822;6.754;2023-03-04T12:27:16;10.82;;;4.93;;
65459;SDS011;52058;49.822;6.754;2023-03-04T12:29:52;12.77;;;4.82;;
65459;SDS011;52058;49.822;6.754;2023-03-04T12:32:25;13.32;;;5.22;;
65459;SDS011;52058;49.822;6.754;2023-03-04T12:35:04;11.88;;;4.50;;
65459;SDS011;52058;49.822;6.754;2023-03-04T12:37:50;7.50;;;3.50;;
65459;SDS011;52058;49.822;6.754;2023-03-04T12:40:25;10.40;;;3.88;;
65459;SDS011;52058;49.822;6.754;2023-03-04T12:43:01;10.20;;;4.57;;
65459;SDS011;52058;49.822;6.754;2023-03-04T12:45:43;8.18;;;3.50;;
65459;SDS011;52058;49.822;6.754;2023-03-04T12:48:17;8.88;;;3.58;;
65459;SDS011;52058;49.822;6.754;2023-03-04T12:50:54;7.05;;;3.60;;
65459;SDS011;52058;49.822;6.754;2023-03-04T12:53:29;5.35;;;2.47;;
65459;SDS011;52058;49.822;6.754;2023-03-04T12:55:59;3.47;;;2.13;;
65459;SDS011;52058;49.822;6.754;2023-03-04T12:58:27;3.25;;;1.70;;
65459;SDS011;52058;49.822;6.754;2023-03-04T13:01:00;2.88;;;1.60;;
65459;SDS011;52058;49.822;6.754;2023-03-04T13:03:36;3.25;;;1.48;;
65459;SDS011;52058;49.822;6.754;2023-03-04T13:06:12;2.88;;;1.63;;
65459;SDS011;52058;49.822;6.754;2023-03-04T13:08:50;3.28;;;2.05;;
65459;SDS011;52058;49.822;6.754;2023-03-04T13:11:39;5.10;;;1.55;;
65459;SDS011;52058;49.822;6.754;2023-03-04T13:14:21;5.07;;;1.95;;
65459;SDS011;52058;49.822;6.754;2023-03-04T13:16:52;1.83;;;1.50;;
65459;SDS011;52058;49.822;6.754;2023-03-04T13:22:33;4.75;;;1.50;;
65459;SDS011;52058;49.822;6.754;2023-03-04T13:28:21;2.80;;;1.73;;
65459;SDS011;52058;49.822;6.754;2023-03-04T13:33:57;5.70;;;1.80;;
65459;SDS011;52058;49.822;6.754;2023-03-04T13:39:28;7.30;;;3.08;;
65459;SDS011;52058;49.822;6.754;2023-03-04T13:41:56;4.35;;;2.28;;
65459;SDS011;52058;49.822;6.754;2023-03-04T13:50:21;4.85;;;3.20;;
65459;SDS011;52058;49.822;6.754;2023-03-04T13:55:36;3.47;;;1.77;;
65459;SDS011;52058;49.822;6.754;2023-03-04T13:58:14;2.85;;;1.80;;
65459;SDS011;52058;49.822;6.754;2023-03-04T14:00:47;3.20;;;1.55;;
65459;SDS011;52058;49.822;6.754;2023-03-04T14:03:19;8.93;;;2.75;;
65459;SDS011;52058;49.822;6.754;2023-03-04T14:08:40;5.50;;;2.67;;
65459;SDS011;52058;49.822;6.754;2023-03-04T14:11:10;5.80;;;3.00;;
65459;SDS011;52058;49.822;6.754;2023-03-04T14:13:38;9.00;;;3.88;;
65459;SDS011;52058;49.822;6.754;2023-03-04T14:16:05;5.88;;;3.38;;
65459;SDS011;52058;49.822;6.754;2023-03-04T14:18:31;5.13;;;3.17;;
65459;SDS011;52058;49.822;6.754;2023-03-04T14:20:59;10.07;;;3.67;;
65459;SDS011;52058;49.822;6.754;2023-03-04T14:23:27;6.82;;;3.60;;
65459;SDS011;52058;49.822;6.754;2023-03-04T14:26:11;6.13;;;4.10;;
65459;SDS011;52058;49.822;6.754;2023-03-04T14:28:42;8.57;;;5.05;;
65459;SDS011;52058;49.822;6.754;2023-03-04T14:31:14;9.02;;;5.03;;
65459;SDS011;52058;49.822;6.754;2023-03-04T14:36:13;8.13;;;3.95;;
65459;SDS011;52058;49.822;6.754;2023-03-04T14:38:43;9.27;;;4.38;;
65459;SDS011;52058;49.822;6.754;2023-03-04T14:41:18;9.52;;;5.30;;
65459;SDS011;52058;49.822;6.754;2023-03-04T14:43:49;7.53;;;4.73;;
65459;SDS011;52058;49.822;6.754;2023-03-04T14:46:21;7.72;;;4.30;;
65459;SDS011;52058;49.822;6.754;2023-03-04T14:48:55;7.30;;;4.28;;
65459;SDS011;52058;49.822;6.754;2023-03-04T14:51:30;9.00;;;4.50;;
65459;SDS011;52058;49.822;6.754;2023-03-04T14:53:58;7.97;;;4.70;;
65459;SDS011;52058;49.822;6.754;2023-03-04T14:56:30;10.05;;;5.07;;
65459;SDS011;52058;49.822;6.754;2023-03-04T14:58:58;8.27;;;4.38;;
65459;SDS011;52058;49.822;6.754;2023-03-04T15:01:30;7.22;;;4.50;;
65459;SDS011;52058;49.822;6.754;2023-03-04T15:03:59;7.90;;;4.47;;
65459;SDS011;52058;49.822;6.754;2023-03-04T15:06:28;8.00;;;4.35;;
65459;SDS011;52058;49.822;6.754;2023-03-04T15:08:57;7.07;;;4.20;;
65459;SDS011;52058;49.822;6.754;2023-03-04T15:11:26;8.35;;;4.95;;
65459;SDS011;52058;49.822;6.754;2023-03-04T15:13:57;6.38;;;4.03;;
65459;SDS011;52058;49.822;6.754;2023-03-04T15:16:26;8.15;;;5.40;;
65459;SDS011;52058;49.822;6.754;2023-03-04T15:18:55;9.27;;;4.47;;